Time;durP1;ratioP1;P1;durP2;ratioP2;P2;SDS_P1;SDS_P2;PMS_P1;PMS_P2;Temp;Humidity;BMP_temperature;BMP_pressure;BME280_temperature;BME280_humidity;BME280_pressure;Samples;Min_cycle;Max_cycle;Signal;HPM_P1;HPM_P2
2021/03/03 00:00:30;;;;;;;26.17;15.70;;;4.90;1.00;;;;;;5080209;28;20190;-71
2021/03/03 00:02:56;;;;;;;29.87;16.53;;;4.90;1.00;;;;;;5077816;28;20187;-71
2021/03/03 00:05:22;;;;;;;31.70;17.27;;;4.90;1.00;;;;;;5079527;28;20301;-69
2021/03/03 00:07:47;;;;;;;30.53;17.03;;;4.80;1.00;;;;;;5075128;28;20184;-72
2021/03/03 00:10:13;;;;;;;28.87;17.30;;;4.80;1.00;;;;;;5076618;28;20637;-69
2021/03/03 00:12:39;;;;;;;27.23;16.90;;;4.90;1.00;;;;;;5083357;28;20181;-70
2021/03/03 00:15:05;;;;;;;30.93;17.87;;;4.90;1.00;;;;;;5082062;28;20448;-70
2021/03/03 00:17:31;;;;;;;27.97;15.60;;;4.80;1.00;;;;;;5079778;28;20181;-70
2021/03/03 00:19:56;;;;;;;31.77;17.57;;;4.80;1.00;;;;;;5079919;28;20505;-70
2021/03/03 00:22:22;;;;;;;26.20;16.07;;;4.70;1.00;;;;;;5086385;28;20269;-71
2021/03/03 00:24:47;;;;;;;35.27;17.90;;;4.80;1.00;;;;;;5084431;28;20294;-70
2021/03/03 00:27:13;;;;;;;26.97;15.80;;;4.80;1.00;;;;;;5077193;28;20223;-71
2021/03/03 00:29:38;;;;;;;30.83;15.53;;;4.80;1.00;;;;;;5071803;28;20186;-70
2021/03/03 00:32:04;;;;;;;29.23;15.97;;;4.80;1.00;;;;;;5074728;28;20183;-70
2021/03/03 00:34:30;;;;;;;28.73;15.37;;;4.80;1.00;;;;;;5081030;28;20186;-71
2021/03/03 00:36:55;;;;;;;30.50;15.30;;;4.70;1.00;;;;;;5090073;28;20432;-72
2021/03/03 00:39:21;;;;;;;24.40;14.67;;;4.70;1.00;;;;;;5086058;28;20193;-73
2021/03/03 00:41:47;;;;;;;32.80;17.57;;;4.60;1.00;;;;;;5096709;28;20270;-72
2021/03/03 00:44:12;;;;;;;29.53;15.77;;;2.50;1.00;;;;;;5091192;28;20214;-72
2021/03/03 00:46:38;;;;;;;29.97;15.43;;;4.60;1.00;;;;;;5080484;28;20533;-70
2021/03/03 00:49:03;;;;;;;27.20;14.70;;;4.60;1.00;;;;;;5086924;28;20679;-72
2021/03/03 00:51:30;;;;;;;28.07;15.33;;;4.60;1.00;;;;;;5086511;28;20282;-72
2021/03/03 00:53:56;;;;;;;27.33;15.47;;;4.50;1.00;;;;;;5085979;28;20218;-70
2021/03/03 00:56:21;;;;;;;24.00;13.93;;;4.60;1.00;;;;;;5082840;28;20481;-73
2021/03/03 00:58:47;;;;;;;26.73;15.33;;;4.50;1.00;;;;;;5079863;28;20178;-71
2021/03/03 01:01:12;;;;;;;27.80;14.70;;;4.60;1.00;;;;;;5085299;28;20284;-72
2021/03/03 01:03:38;;;;;;;28.63;16.17;;;4.50;1.00;;;;;;5080367;28;20277;-71
2021/03/03 01:06:03;;;;;;;28.97;15.47;;;4.60;1.00;;;;;;5081513;28;20218;-73
2021/03/03 01:08:29;;;;;;;30.03;15.10;;;4.60;1.00;;;;;;5084223;28;20186;-71
2021/03/03 01:10:54;;;;;;;26.40;14.83;;;4.50;1.00;;;;;;5081804;28;20274;-71
2021/03/03 01:13:21;;;;;;;28.43;15.13;;;4.60;1.00;;;;;;5086615;28;20226;-73
2021/03/03 01:15:47;;;;;;;27.27;14.43;;;4.60;1.00;;;;;;5084214;28;20194;-71
2021/03/03 01:18:12;;;;;;;26.17;14.40;;;4.50;1.00;;;;;;5081841;28;20494;-72
2021/03/03 01:20:38;;;;;;;23.00;14.03;;;4.40;1.00;;;;;;5082054;28;20180;-73
2021/03/03 01:23:06;;;;;;;27.23;15.80;;;4.30;1.00;;;;;;5077051;28;20198;-73
2021/03/03 01:25:32;;;;;;;22.80;14.60;;;4.40;1.00;;;;;;5082048;28;20631;-72
2021/03/03 01:27:57;;;;;;;26.17;15.70;;;4.40;1.00;;;;;;5089615;28;20459;-72
2021/03/03 01:30:23;;;;;;;23.20;14.33;;;4.50;1.00;;;;;;5078281;28;20177;-73
2021/03/03 01:32:49;;;;;;;26.27;15.07;;;4.40;1.00;;;;;;5076901;28;20233;-71
2021/03/03 01:35:14;;;;;;;26.03;14.47;;;4.50;1.00;;;;;;5081169;28;20496;-71
2021/03/03 01:37:40;;;;;;;27.70;14.90;;;4.40;1.00;;;;;;5085102;28;20212;-70
2021/03/03 01:40:06;;;;;;;28.93;15.60;;;4.40;1.00;;;;;;5090174;28;20186;-71
2021/03/03 01:42:32;;;;;;;23.63;14.00;;;4.30;1.00;;;;;;5084088;28;20609;-71
2021/03/03 01:44:58;;;;;;;23.87;15.03;;;4.10;1.00;;;;;;5079434;28;20470;-71
2021/03/03 01:47:23;;;;;;;27.57;15.73;;;4.20;1.00;;;;;;5077872;28;20199;-72
2021/03/03 01:49:49;;;;;;;26.47;13.40;;;4.20;1.00;;;;;;5079507;28;20429;-72
2021/03/03 01:52:16;;;;;;;23.23;14.53;;;4.20;1.00;;;;;;5080621;28;20185;-72
2021/03/03 01:54:42;;;;;;;22.07;13.93;;;4.20;1.00;;;;;;5086851;28;20179;-71
2021/03/03 01:57:09;;;;;;;23.77;14.87;;;4.20;1.00;;;;;;5082823;28;20580;-72
2021/03/03 01:59:35;;;;;;;25.97;16.10;;;4.20;1.00;;;;;;5088129;28;20448;-70
2021/03/03 02:02:01;;;;;;;31.83;16.13;;;4.20;1.00;;;;;;5080711;28;20440;-72
2021/03/03 02:04:26;;;;;;;25.60;15.57;;;4.20;1.00;;;;;;5083358;28;20245;-71
2021/03/03 02:06:52;;;;;;;26.83;14.33;;;4.20;1.00;;;;;;5079044;28;20468;-71
2021/03/03 02:09:31;;;;;;;29.37;14.93;;;4.10;1.00;;;;;;5079764;28;20183;-72
2021/03/03 02:12:11;;;;;;;22.03;12.63;;;4.20;1.00;;;;;;5082860;28;20380;-71
2021/03/03 02:14:41;;;;;;;23.50;13.90;;;4.20;1.00;;;;;;5082360;28;20532;-71
2021/03/03 02:17:06;;;;;;;22.00;13.83;;;4.20;1.00;;;;;;5084105;28;20443;-72
2021/03/03 02:19:36;;;;;;;26.47;14.60;;;4.10;1.00;;;;;;5083856;28;20448;-73
2021/03/03 02:22:21;;;;;;;26.30;14.60;;;4.10;1.00;;;;;;5077071;28;20467;-73
2021/03/03 02:24:55;;;;;;;25.77;14.00;;;4.10;1.00;;;;;;5084399;28;20505;-73
2021/03/03 02:27:23;;;;;;;24.80;14.03;;;4.10;1.00;;;;;;5079150;28;21055;-71
2021/03/03 02:29:50;;;;;;;23.73;13.70;;;4.10;1.00;;;;;;5088207;28;20451;-71
2021/03/03 02:32:18;;;;;;;17.83;13.60;;;4.10;1.00;;;;;;5080827;28;20420;-75
2021/03/03 02:34:45;;;;;;;24.17;12.60;;;4.00;1.00;;;;;;5082028;28;20910;-71
2021/03/03 02:37:13;;;;;;;22.83;14.40;;;4.00;1.00;;;;;;5081709;28;20526;-71
2021/03/03 02:39:39;;;;;;;25.50;15.00;;;4.00;1.00;;;;;;5080576;28;21001;-70
2021/03/03 02:42:06;;;;;;;26.70;14.17;;;4.00;1.00;;;;;;5082498;28;20778;-71
2021/03/03 02:44:33;;;;;;;25.27;15.37;;;3.90;1.00;;;;;;5083563;28;20551;-70
2021/03/03 02:46:59;;;;;;;25.50;15.17;;;3.90;1.00;;;;;;5076118;28;20430;-69
2021/03/03 02:49:26;;;;;;;23.40;14.40;;;6.80;1.00;;;;;;5086283;28;20799;-69
2021/03/03 02:51:52;;;;;;;22.93;13.20;;;4.10;1.00;;;;;;5079537;28;20175;-71
2021/03/03 02:54:18;;;;;;;25.00;14.70;;;4.10;1.00;;;;;;5084094;28;20964;-71
2021/03/03 02:56:44;;;;;;;24.50;14.70;;;4.00;1.00;;;;;;5075533;28;20198;-72
2021/03/03 02:59:34;;;;;;;26.93;14.40;;;4.00;1.00;;;;;;5082455;28;20208;-72
2021/03/03 03:02:02;;;;;;;21.83;13.87;;;3.90;1.00;;;;;;5083819;28;20445;-72
2021/03/03 03:04:31;;;;;;;21.57;14.70;;;3.90;1.00;;;;;;5089355;28;20467;-71
2021/03/03 03:07:00;;;;;;;25.63;14.67;;;3.80;1.00;;;;;;5085260;28;20483;-73
2021/03/03 03:09:26;;;;;;;24.93;14.87;;;3.80;1.00;;;;;;5090237;28;20445;-70
2021/03/03 03:11:53;;;;;;;18.87;12.40;;;3.80;1.00;;;;;;5084654;28;20448;-73
2021/03/03 03:14:24;;;;;;;25.57;15.10;;;3.70;1.00;;;;;;5090511;28;20431;-72
2021/03/03 03:16:51;;;;;;;28.27;14.43;;;3.70;1.00;;;;;;5084383;28;20775;-72
2021/03/03 03:19:23;;;;;;;24.63;15.00;;;3.70;1.00;;;;;;5079103;28;20443;-72
2021/03/03 03:21:50;;;;;;;25.93;14.17;;;3.70;1.00;;;;;;5081993;28;20960;-72
2021/03/03 03:24:21;;;;;;;26.33;13.53;;;3.70;1.00;;;;;;5085769;28;20821;-72
2021/03/03 03:26:48;;;;;;;24.07;13.40;;;3.60;1.00;;;;;;5075856;28;20556;-72
2021/03/03 03:29:15;;;;;;;20.57;12.90;;;3.60;1.00;;;;;;5077694;28;20443;-72
2021/03/03 03:31:42;;;;;;;22.47;12.77;;;3.60;1.00;;;;;;5085289;28;20508;-73
2021/03/03 03:34:11;;;;;;;21.40;12.00;;;3.70;1.00;;;;;;5083306;28;20442;-72
2021/03/03 03:36:38;;;;;;;28.33;15.37;;;3.60;1.00;;;;;;5083935;28;20437;-70
2021/03/03 03:39:06;;;;;;;22.30;13.07;;;3.70;1.00;;;;;;5076674;28;20959;-71
2021/03/03 03:41:33;;;;;;;23.10;13.30;;;3.70;1.00;;;;;;5083954;28;20457;-72
2021/03/03 03:43:59;;;;;;;20.80;11.50;;;3.60;1.00;;;;;;5077147;28;20997;-72
2021/03/03 03:46:26;;;;;;;24.37;14.30;;;3.60;1.00;;;;;;5073300;28;20449;-71
2021/03/03 03:48:52;;;;;;;30.23;16.00;;;3.60;1.00;;;;;;5077306;28;20432;-73
2021/03/03 03:51:18;;;;;;;30.87;14.60;;;3.40;1.00;;;;;;5080361;28;20444;-73
2021/03/03 03:53:44;;;;;;;25.07;14.53;;;3.40;1.00;;;;;;5084948;28;20438;-71
2021/03/03 03:56:10;;;;;;;24.83;12.70;;;3.40;1.00;;;;;;5087331;28;20186;-73
2021/03/03 03:58:36;;;;;;;25.80;14.87;;;3.40;1.00;;;;;;5086044;28;20532;-73
2021/03/03 04:01:02;;;;;;;27.33;14.17;;;3.50;1.00;;;;;;5082031;28;20828;-70
2021/03/03 04:03:31;;;;;;;27.23;15.60;;;3.50;1.00;;;;;;5077022;28;20212;-73
2021/03/03 04:05:56;;;;;;;24.60;14.27;;;3.40;1.00;;;;;;5075495;28;20462;-70
2021/03/03 04:08:22;;;;;;;26.93;14.00;;;3.30;1.00;;;;;;5076711;28;20444;-71
2021/03/03 04:10:47;;;;;;;23.50;14.83;;;3.40;21.00;;;;;;5082769;28;20180;-71
2021/03/03 04:13:13;;;;;;;24.57;13.17;;;3.40;20.70;;;;;;5074681;28;20186;-71
2021/03/03 04:15:38;;;;;;;25.07;14.30;;;3.40;21.80;;;;;;5071362;28;20711;-66
2021/03/03 04:18:04;;;;;;;26.60;15.40;;;3.40;23.00;;;;;;5071917;28;20179;-72
2021/03/03 04:20:30;;;;;;;25.53;14.17;;;3.40;28.10;;;;;;5071829;28;20835;-72
2021/03/03 04:22:56;;;;;;;23.03;13.87;;;3.40;23.80;;;;;;5078938;28;20490;-71
2021/03/03 04:25:21;;;;;;;24.87;14.40;;;3.40;24.90;;;;;;5081853;28;20210;-70
2021/03/03 04:27:47;;;;;;;25.90;14.23;;;3.40;24.70;;;;;;5071405;28;20218;-71
2021/03/03 04:30:16;;;;;;;30.43;14.97;;;3.30;22.40;;;;;;5074217;28;20191;-70
2021/03/03 04:32:43;;;;;;;22.33;12.70;;;3.30;24.60;;;;;;5076045;28;20179;-73
2021/03/03 04:35:10;;;;;;;23.33;13.90;;;3.40;23.20;;;;;;5079578;28;20504;-70
2021/03/03 04:37:37;;;;;;;22.83;13.23;;;3.30;25.50;;;;;;5077361;28;20439;-75
2021/03/03 04:40:08;;;;;;;21.13;13.10;;;3.30;27.20;;;;;;5074476;28;20448;-72
2021/03/03 04:42:33;;;;;;;25.60;13.33;;;3.30;30.40;;;;;;5082405;28;20428;-73
2021/03/03 04:45:00;;;;;;;24.23;14.40;;;3.20;41.10;;;;;;5076057;28;20474;-74
2021/03/03 04:47:26;;;;;;;24.40;14.50;;;3.30;45.60;;;;;;5081851;28;20561;-72
2021/03/03 04:49:51;;;;;;;23.17;13.00;;;3.30;43.60;;;;;;5075099;28;20474;-69
2021/03/03 04:52:17;;;;;;;27.73;14.20;;;3.30;46.90;;;;;;5079456;28;20178;-72
2021/03/03 04:54:42;;;;;;;22.20;13.50;;;3.30;50.10;;;;;;5069743;28;20193;-74
2021/03/03 04:57:08;;;;;;;22.03;13.90;;;3.30;47.00;;;;;;5079302;28;20184;-74
2021/03/03 04:59:33;;;;;;;27.47;13.77;;;3.30;48.90;;;;;;5077283;28;20586;-73
2021/03/03 05:01:59;;;;;;;24.27;13.80;;;3.30;51.50;;;;;;5084743;28;20269;-72
2021/03/03 05:04:25;;;;;;;22.40;14.50;;;3.20;52.50;;;;;;5078508;28;20211;-68
2021/03/03 05:06:50;;;;;;;21.93;13.30;;;2.80;52.60;;;;;;5074358;28;20189;-70
2021/03/03 05:09:16;;;;;;;27.30;15.70;;;3.20;53.90;;;;;;5068852;28;20499;-72
2021/03/03 05:11:42;;;;;;;23.47;14.30;;;3.30;68.90;;;;;;5081664;28;20218;-73
2021/03/03 05:14:07;;;;;;;28.83;15.07;;;3.30;70.60;;;;;;5080608;28;20232;-71
2021/03/03 05:16:33;;;;;;;26.63;14.20;;;3.30;75.60;;;;;;5072914;28;20610;-72
2021/03/03 05:18:59;;;;;;;27.27;16.83;;;3.30;83.10;;;;;;5083897;28;20193;-71
2021/03/03 05:21:24;;;;;;;25.17;14.77;;;3.20;78.70;;;;;;5079310;28;20188;-72
2021/03/03 05:23:50;;;;;;;25.67;14.37;;;3.20;84.20;;;;;;5080513;28;20256;-74
2021/03/03 05:26:16;;;;;;;24.30;15.10;;;3.20;84.60;;;;;;5073487;28;20215;-76
2021/03/03 05:28:43;;;;;;;29.03;17.13;;;3.20;86.30;;;;;;5075375;28;20200;-73
2021/03/03 05:31:09;;;;;;;25.90;15.07;;;3.10;87.30;;;;;;5073780;28;20198;-74
2021/03/03 05:33:35;;;;;;;22.37;14.50;;;3.20;92.40;;;;;;5086137;28;20458;-73
2021/03/03 05:36:06;;;;;;;27.03;14.27;;;3.20;99.90;;;;;;5087047;28;20210;-73
2021/03/03 05:38:33;;;;;;;23.37;14.63;;;3.20;99.90;;;;;;5083250;28;20500;-73
2021/03/03 05:40:59;;;;;;;26.53;14.60;;;3.20;99.90;;;;;;5088734;28;20439;-72
2021/03/03 05:43:24;;;;;;;27.07;14.10;;;3.20;98.30;;;;;;5077788;28;20468;-72
2021/03/03 05:45:51;;;;;;;28.80;15.97;;;3.20;99.90;;;;;;5076157;28;20182;-74
2021/03/03 05:48:23;;;;;;;29.37;15.10;;;3.20;99.90;;;;;;5077766;28;20182;-72
2021/03/03 05:50:57;;;;;;;22.90;13.73;;;3.20;98.20;;;;;;5090556;28;20461;-73
2021/03/03 05:53:25;;;;;;;28.40;15.67;;;3.10;99.90;;;;;;5079668;28;20946;-74
2021/03/03 05:55:54;;;;;;;28.80;14.93;;;3.10;99.90;;;;;;5079461;28;20442;-71
2021/03/03 05:58:19;;;;;;;27.57;15.50;;;3.20;99.90;;;;;;5085979;28;20475;-72
2021/03/03 06:00:48;;;;;;;28.27;14.03;;;3.20;99.90;;;;;;5094166;28;20464;-70
2021/03/03 06:03:14;;;;;;;25.07;15.90;;;3.00;99.90;;;;;;5081362;28;20192;-71
2021/03/03 06:05:39;;;;;;;23.97;14.17;;;3.10;99.90;;;;;;5087600;28;20516;-71
2021/03/03 06:08:05;;;;;;;27.93;14.67;;;3.10;99.90;;;;;;5076893;28;20443;-71
2021/03/03 06:10:31;;;;;;;24.90;14.87;;;3.20;99.90;;;;;;5083586;28;20177;-71
2021/03/03 06:12:56;;;;;;;25.30;14.13;;;3.00;99.90;;;;;;5092643;28;20208;-71
2021/03/03 06:15:22;;;;;;;25.97;14.13;;;3.20;99.90;;;;;;5080410;28;20241;-71
2021/03/03 06:17:48;;;;;;;26.70;13.60;;;3.20;99.90;;;;;;5076234;28;20521;-72
2021/03/03 06:20:15;;;;;;;22.33;13.93;;;3.30;99.90;;;;;;5073278;28;20449;-71
2021/03/03 06:22:40;;;;;;;25.47;15.20;;;3.30;99.90;;;;;;5072425;28;20442;-72
2021/03/03 06:25:23;;;;;;;25.93;15.60;;;3.40;99.90;;;;;;5072734;28;20511;-72
2021/03/03 06:27:49;;;;;;;29.63;16.47;;;3.40;99.90;;;;;;5081720;28;20223;-73
2021/03/03 06:30:16;;;;;;;25.40;14.10;;;3.40;99.90;;;;;;5074844;28;20568;-72
2021/03/03 06:32:56;;;;;;;23.60;13.63;;;3.40;99.90;;;;;;5074740;28;20444;-71
2021/03/03 06:35:34;;;;;;;27.90;15.57;;;3.40;99.90;;;;;;5083374;28;20526;-71
2021/03/03 06:38:00;;;;;;;23.03;13.40;;;3.40;99.90;;;;;;5070234;28;20444;-72
2021/03/03 06:40:27;;;;;;;26.20;14.43;;;3.50;99.90;;;;;;5087722;28;20531;-72
2021/03/03 06:42:53;;;;;;;23.47;15.00;;;3.60;99.90;;;;;;5072106;28;20459;-70
2021/03/03 06:45:31;;;;;;;25.17;14.53;;;3.50;99.90;;;;;;5073113;28;20544;-72
2021/03/03 06:47:58;;;;;;;19.70;13.50;;;3.60;99.90;;;;;;5076053;28;20439;-71
2021/03/03 06:50:37;;;;;;;25.90;15.20;;;3.80;99.80;;;;;;5078559;28;20829;-71
2021/03/03 06:53:03;;;;;;;21.43;13.23;;;3.80;96.50;;;;;;5080753;28;20491;-70
2021/03/03 06:55:55;;;;;;;26.27;16.37;;;3.80;94.70;;;;;;5072051;28;21087;-69
2021/03/03 06:58:28;;;;;;;25.90;13.73;;;3.80;90.90;;;;;;5070778;28;20284;-70
2021/03/03 07:00:57;;;;;;;25.13;14.33;;;3.80;90.50;;;;;;5080919;28;20788;-70
2021/03/03 07:03:41;;;;;;;20.50;13.57;;;3.80;88.90;;;;;;5068754;28;20542;-72
2021/03/03 07:06:07;;;;;;;27.37;14.70;;;3.90;77.30;;;;;;5075746;28;20497;-70
2021/03/03 07:08:33;;;;;;;24.53;14.00;;;4.00;70.00;;;;;;5088388;28;20440;-70
2021/03/03 07:10:58;;;;;;;24.83;13.60;;;4.00;56.90;;;;;;5079601;28;20308;-70
2021/03/03 07:13:37;;;;;;;23.07;12.57;;;4.10;34.50;;;;;;5070475;28;20191;-70
2021/03/03 07:16:07;;;;;;;25.90;13.07;;;4.10;34.50;;;;;;5072699;28;20685;-69
2021/03/03 07:18:38;;;;;;;22.20;14.37;;;4.20;28.40;;;;;;5074357;28;20487;-70
2021/03/03 07:21:06;;;;;;;29.23;15.30;;;4.30;17.30;;;;;;5090040;28;20433;-70
2021/03/03 07:23:45;;;;;;;21.77;12.20;;;4.40;7.50;;;;;;5075188;28;20475;-69
2021/03/03 07:26:12;;;;;;;26.47;13.13;;;4.50;1.00;;;;;;5083103;28;20459;-69
2021/03/03 07:28:39;;;;;;;21.50;12.20;;;4.60;1.00;;;;;;5086567;28;20991;-72
2021/03/03 07:31:06;;;;;;;22.90;13.33;;;4.60;1.00;;;;;;5069964;28;20783;-72
2021/03/03 07:33:32;;;;;;;22.13;14.00;;;4.70;1.00;;;;;;5071114;28;20555;-72
2021/03/03 07:36:03;;;;;;;24.63;13.03;;;4.70;1.00;;;;;;5081557;28;21053;-71
2021/03/03 07:38:32;;;;;;;22.93;13.10;;;4.80;1.00;;;;;;5080684;28;20269;-72
2021/03/03 07:41:03;;;;;;;19.67;12.50;;;5.00;1.00;;;;;;5089945;28;20448;-71
2021/03/03 07:43:31;;;;;;;26.07;13.20;;;5.60;1.00;;;;;;5077098;28;20447;-70
2021/03/03 07:46:04;;;;;;;24.30;13.00;;;5.60;1.00;;;;;;5074315;28;20764;-71
2021/03/03 07:48:31;;;;;;;18.53;11.97;;;6.00;1.00;;;;;;5070991;28;20457;-71
2021/03/03 07:50:56;;;;;;;21.90;12.20;;;6.10;1.00;;;;;;5079682;28;20466;-73
2021/03/03 07:53:22;;;;;;;24.13;14.33;;;6.30;1.00;;;;;;5078293;28;20446;-72
2021/03/03 07:55:48;;;;;;;22.03;12.63;;;6.30;1.00;;;;;;5078862;28;20683;-72
2021/03/03 07:58:14;;;;;;;20.40;12.47;;;6.20;1.00;;;;;;5073595;28;20799;-73
2021/03/03 08:00:42;;;;;;;23.50;13.40;;;6.10;1.00;;;;;;5075098;28;20437;-72
2021/03/03 08:03:08;;;;;;;19.30;12.00;;;6.20;1.00;;;;;;5090021;28;20448;-74
2021/03/03 08:05:38;;;;;;;22.13;13.53;;;6.30;1.00;;;;;;5074602;28;20469;-74
2021/03/03 08:08:10;;;;;;;24.00;13.23;;;6.40;1.00;;;;;;5076198;28;20528;-73
2021/03/03 08:10:41;;;;;;;22.47;14.20;;;6.50;1.00;;;;;;5073005;28;20464;-74
2021/03/03 08:13:14;;;;;;;19.73;12.37;;;6.70;1.00;;;;;;5077424;28;20434;-74
2021/03/03 08:15:44;;;;;;;19.97;13.20;;;6.70;1.00;;;;;;5071138;28;20426;-74
2021/03/03 08:18:18;;;;;;;21.70;13.40;;;6.80;1.00;;;;;;5085545;28;20519;-75
2021/03/03 08:20:48;;;;;;;20.80;12.10;;;6.80;1.00;;;;;;5075877;28;20517;-75
2021/03/03 08:23:44;;;;;;;17.80;12.00;;;7.00;1.00;;;;;;5091470;28;20455;-75
2021/03/03 08:26:15;;;;;;;20.03;12.80;;;7.20;1.00;;;;;;5072252;28;20480;-74
2021/03/03 08:28:46;;;;;;;17.20;11.70;;;7.30;1.00;;;;;;5070122;28;21074;-74
2021/03/03 08:31:14;;;;;;;19.60;12.53;;;7.40;1.00;;;;;;5077996;28;20736;-73
2021/03/03 08:33:42;;;;;;;21.60;11.53;;;7.50;1.00;;;;;;5081011;28;20425;-74
2021/03/03 08:36:30;;;;;;;21.43;12.50;;;7.40;1.00;;;;;;5081545;28;20436;-74
2021/03/03 08:38:56;;;;;;;18.93;11.50;;;7.50;1.00;;;;;;5091293;28;20478;-74
2021/03/03 08:41:30;;;;;;;19.10;11.90;;;7.60;1.00;;;;;;5073703;28;20445;-75
2021/03/03 08:44:10;;;;;;;19.97;12.33;;;7.70;1.00;;;;;;5073902;28;20540;-74
2021/03/03 08:46:42;;;;;;;21.50;12.93;;;7.90;1.00;;;;;;5073642;28;20433;-74
2021/03/03 08:49:07;;;;;;;22.47;12.67;;;8.00;1.00;;;;;;5085323;28;20436;-76
2021/03/03 08:51:37;;;;;;;23.83;11.80;;;8.00;1.00;;;;;;5071034;28;20438;-74
2021/03/03 08:54:05;;;;;;;18.97;11.10;;;8.10;1.00;;;;;;5071062;28;20191;-74
2021/03/03 08:56:53;;;;;;;22.50;12.47;;;8.20;1.00;;;;;;5086033;28;20553;-72
2021/03/03 08:59:28;;;;;;;19.20;12.47;;;8.40;1.00;;;;;;5075213;28;20416;-73
2021/03/03 09:02:17;;;;;;;21.43;13.03;;;8.50;1.00;;;;;;5070238;28;20528;-74
2021/03/03 09:04:44;;;;;;;16.70;11.70;;;8.70;1.00;;;;;;5082609;28;20468;-74
2021/03/03 09:07:23;;;;;;;20.80;12.97;;;8.70;1.00;;;;;;5091267;28;20436;-74
2021/03/03 09:09:54;;;;;;;19.47;12.97;;;8.90;1.00;;;;;;5090901;28;20468;-76
2021/03/03 09:12:31;;;;;;;23.27;13.17;;;9.00;1.00;;;;;;5086679;28;20498;-74
2021/03/03 09:15:00;;;;;;;17.67;13.60;;;9.40;1.00;;;;;;5091278;28;20524;-72
2021/03/03 09:17:28;;;;;;;21.93;13.60;;;9.60;1.00;;;;;;5074220;28;20498;-72
2021/03/03 09:19:58;;;;;;;17.73;11.93;;;9.40;1.00;;;;;;5088967;28;20440;-75
2021/03/03 09:22:33;;;;;;;18.63;12.17;;;9.50;1.00;;;;;;5074357;28;20438;-71
2021/03/03 09:25:16;;;;;;;22.83;12.50;;;9.50;1.00;;;;;;5087937;28;20461;-71
2021/03/03 09:27:58;;;;;;;16.17;12.43;;;9.60;1.00;;;;;;5080686;28;20538;-71
2021/03/03 09:30:26;;;;;;;15.13;11.37;;;9.70;1.00;;;;;;5073145;28;20441;-70
2021/03/03 09:32:53;;;;;;;19.60;12.83;;;9.80;1.00;;;;;;5073187;28;20433;-71
2021/03/03 09:35:29;;;;;;;19.33;13.57;;;9.90;1.00;;;;;;5071486;28;20453;-73
2021/03/03 09:37:54;;;;;;;15.60;12.40;;;10.00;1.00;;;;;;5078094;28;20452;-68
2021/03/03 09:40:27;;;;;;;14.07;11.40;;;10.10;1.00;;;;;;5085814;28;20440;-73
2021/03/03 09:42:53;;;;;;;21.87;13.13;;;10.00;1.00;;;;;;5078437;28;20188;-72
2021/03/03 09:45:20;;;;;;;23.60;13.50;;;10.20;1.00;;;;;;5085514;28;20467;-73
2021/03/03 09:47:46;;;;;;;21.43;12.90;;;10.20;1.00;;;;;;5082284;28;20183;-72
2021/03/03 09:50:17;;;;;;;19.10;13.67;;;10.20;1.00;;;;;;5089541;28;20434;-72
2021/03/03 09:52:45;;;;;;;19.10;12.07;;;10.50;1.00;;;;;;5073519;28;20520;-72
2021/03/03 09:55:16;;;;;;;21.53;13.27;;;10.50;1.00;;;;;;5076519;28;20433;-72
2021/03/03 09:57:43;;;;;;;17.67;12.37;;;10.70;1.00;;;;;;5090067;28;20472;-73
2021/03/03 10:00:15;;;;;;;19.47;13.37;;;10.80;1.00;;;;;;5083913;28;20586;-72
2021/03/03 10:02:50;;;;;;;19.57;13.17;;;10.90;1.00;;;;;;5073167;28;20437;-72
2021/03/03 10:05:24;;;;;;;23.03;13.57;;;10.90;1.00;;;;;;5071553;28;20555;-72
2021/03/03 10:07:52;;;;;;;19.60;14.07;;;11.20;1.00;;;;;;5088569;28;20440;-72
2021/03/03 10:10:20;;;;;;;20.50;13.13;;;11.20;1.00;;;;;;5073929;28;20744;-73
2021/03/03 10:12:46;;;;;;;19.10;12.53;;;11.30;1.00;;;;;;5071543;28;20457;-73
2021/03/03 10:15:16;;;;;;;19.00;13.53;;;11.60;1.00;;;;;;5080203;28;20507;-73
2021/03/03 10:17:44;;;;;;;20.90;13.37;;;11.60;1.00;;;;;;5073501;28;20497;-72
2021/03/03 10:20:29;;;;;;;25.50;15.27;;;11.50;1.00;;;;;;5092739;28;20441;-72
2021/03/03 10:22:56;;;;;;;14.73;11.97;;;11.60;1.00;;;;;;5093554;28;20439;-71
2021/03/03 10:25:35;;;;;;;19.43;11.90;;;11.70;1.00;;;;;;5080092;28;20485;-73
2021/03/03 10:28:19;;;;;;;18.27;12.47;;;11.70;1.00;;;;;;5073992;28;20560;-72
2021/03/03 10:30:46;;;;;;;19.03;12.70;;;11.80;1.00;;;;;;5079843;28;20458;-73
2021/03/03 10:33:24;;;;;;;23.63;13.93;;;12.00;1.00;;;;;;5083095;28;20441;-74
2021/03/03 10:35:51;;;;;;;18.27;13.37;;;12.30;1.00;;;;;;5084653;28;20543;-73
2021/03/03 10:38:19;;;;;;;21.23;12.70;;;12.30;1.00;;;;;;5081091;28;20433;-73
2021/03/03 10:40:46;;;;;;;20.97;13.80;;;12.40;1.00;;;;;;5072786;28;20429;-73
2021/03/03 10:43:20;;;;;;;16.43;12.07;;;12.60;1.00;;;;;;5071604;28;20465;-73
2021/03/03 10:45:47;;;;;;;23.53;13.53;;;12.60;1.00;;;;;;5087152;28;20733;-72
2021/03/03 10:48:30;;;;;;;18.77;13.20;;;12.90;1.00;;;;;;5071500;28;20436;-73
2021/03/03 10:50:59;;;;;;;20.90;13.67;;;13.00;1.00;;;;;;5077634;28;20438;-73
2021/03/03 10:53:42;;;;;;;24.63;12.07;;;13.00;1.00;;;;;;5084558;28;20773;-73
2021/03/03 10:56:27;;;;;;;19.90;13.40;;;13.00;1.00;;;;;;5075677;28;20944;-73
2021/03/03 10:58:54;;;;;;;17.23;12.77;;;13.10;1.00;;;;;;5079758;28;20840;-74
2021/03/03 11:01:20;;;;;;;27.30;13.50;;;13.10;1.00;;;;;;5082619;28;20782;-73
2021/03/03 11:03:53;;;;;;;20.13;13.13;;;13.20;1.00;;;;;;5076632;28;20492;-73
2021/03/03 11:06:19;;;;;;;17.07;12.97;;;13.10;1.00;;;;;;5077457;28;20485;-72
2021/03/03 11:08:45;;;;;;;20.87;14.10;;;13.20;1.00;;;;;;5072845;28;20575;-73
2021/03/03 11:11:12;;;;;;;18.83;12.60;;;13.30;1.00;;;;;;5071070;28;21128;-72
2021/03/03 11:13:37;;;;;;;17.77;12.43;;;13.20;1.00;;;;;;5093079;28;20178;-72
2021/03/03 11:16:03;;;;;;;18.93;11.73;;;12.80;1.00;;;;;;5076869;28;20524;-73
2021/03/03 11:18:29;;;;;;;18.63;13.10;;;12.60;1.00;;;;;;5073698;28;20655;-74
2021/03/03 11:20:56;;;;;;;28.37;15.30;;;12.60;1.00;;;;;;5066394;28;20510;-74
2021/03/03 11:23:21;;;;;;;30.30;16.40;;;12.60;1.00;;;;;;5068771;28;20198;-71
2021/03/03 11:25:47;;;;;;;29.27;19.17;;;12.60;1.00;;;;;;5064996;28;20418;-72
2021/03/03 11:28:12;;;;;;;36.07;18.80;;;12.60;1.00;;;;;;5079269;28;20701;-74
2021/03/03 11:30:38;;;;;;;17.23;12.03;;;12.60;1.00;;;;;;5073060;28;20194;-74
2021/03/03 11:33:04;;;;;;;19.13;14.07;;;12.60;1.00;;;;;;5073077;28;20187;-72
2021/03/03 11:35:29;;;;;;;155.57;42.53;;;12.70;1.00;;;;;;5072533;28;20198;-74
2021/03/03 11:37:55;;;;;;;20.73;12.90;;;13.20;1.00;;;;;;5086378;28;20178;-74
2021/03/03 11:40:21;;;;;;;18.20;13.50;;;12.80;1.00;;;;;;5080297;28;20650;-72
2021/03/03 11:42:46;;;;;;;21.97;13.83;;;13.10;1.00;;;;;;5071727;28;20212;-73
2021/03/03 11:45:12;;;;;;;17.67;13.40;;;13.50;1.00;;;;;;5075499;28;20219;-72
2021/03/03 11:47:38;;;;;;;17.67;13.13;;;13.60;1.00;;;;;;5063955;28;20630;-72
2021/03/03 11:50:05;;;;;;;17.60;13.40;;;13.70;1.00;;;;;;5071843;28;20460;-74
2021/03/03 11:52:31;;;;;;;20.10;14.40;;;13.60;1.00;;;;;;5069250;28;20191;-73
2021/03/03 11:54:56;;;;;;;19.97;13.33;;;13.50;1.00;;;;;;5074883;28;20446;-75
2021/03/03 11:57:22;;;;;;;22.60;14.80;;;13.40;1.00;;;;;;5070313;28;20192;-72
2021/03/03 11:59:50;;;;;;;21.00;14.13;;;13.50;1.00;;;;;;5070802;28;20193;-72
2021/03/03 12:02:15;;;;;;;22.83;15.40;;;13.90;1.00;;;;;;5078944;28;20262;-72
2021/03/03 12:04:41;;;;;;;22.40;13.57;;;14.10;1.00;;;;;;5068280;28;20560;-71
2021/03/03 12:07:07;;;;;;;21.03;14.17;;;14.20;1.00;;;;;;5085395;28;20181;-73
2021/03/03 12:09:32;;;;;;;19.13;13.77;;;14.20;1.00;;;;;;5091765;28;20181;-73
2021/03/03 12:11:58;;;;;;;21.60;14.43;;;14.20;1.00;;;;;;5074922;28;20673;-71
2021/03/03 12:14:24;;;;;;;20.50;14.87;;;14.10;1.00;;;;;;5087554;28;20185;-70
2021/03/03 12:16:49;;;;;;;21.50;14.60;;;13.90;1.00;;;;;;5083231;28;20190;-69
2021/03/03 12:19:15;;;;;;;23.27;14.80;;;13.70;1.00;;;;;;5071261;28;20189;-71
2021/03/03 12:21:40;;;;;;;18.40;13.87;;;13.70;1.00;;;;;;5079372;28;20324;-70
2021/03/03 12:24:06;;;;;;;19.67;14.40;;;13.70;1.00;;;;;;5082635;28;20225;-71
2021/03/03 12:26:32;;;;;;;21.03;14.83;;;13.70;1.00;;;;;;5071027;28;20569;-72
2021/03/03 12:28:57;;;;;;;20.33;14.17;;;13.70;1.00;;;;;;5070911;28;20182;-70
2021/03/03 12:31:26;;;;;;;17.70;13.20;;;13.70;1.00;;;;;;5070808;28;20644;-72
2021/03/03 12:33:51;;;;;;;21.33;13.97;;;13.70;1.00;;;;;;5071172;28;20195;-70
2021/03/03 12:36:17;;;;;;;23.07;14.57;;;13.60;1.00;;;;;;5073303;28;20454;-71
2021/03/03 12:38:46;;;;;;;24.37;14.03;;;;;;;;;;5091372;28;20255;-72
2021/03/03 12:41:12;;;;;;;19.87;14.03;;;13.60;1.00;;;;;;5086683;28;20267;-70
2021/03/03 12:43:37;;;;;;;19.83;14.03;;;13.60;1.00;;;;;;5069136;28;20532;-70
2021/03/03 12:46:03;;;;;;;20.23;13.97;;;;;;;;;;5070606;28;20186;-71
2021/03/03 12:48:29;;;;;;;21.73;14.70;;;13.60;1.00;;;;;;5076075;28;20201;-70